This is the latest recevied weather packets stored in our database for station/object N4RCT. If no packets are shown the sender has not sent any weather packets the latest 1 day(s).
| Time | Temp. | Humidity | Pressure | Rain* | Wind** | Luminosity | Snow |
|---|---|---|---|---|---|---|---|
| 1778105258 | 21.67° C | 86% | 1010.8 hPa | 0 mm | - | 4 W/m² | - |
| 1778104345 | 22.78° C | 84% | 1010.9 hPa | 0 mm | - | 15 W/m² | - |
| 1778103739 | 23.89° C | 84% | 1011 hPa | 0 mm | - | 26 W/m² | - |
| 1778103437 | 23.89° C | 83% | 1010.8 hPa | 0 mm | - | 55 W/m² | - |
| 1778101919 | 24.44° C | 82% | 1010.9 hPa | 0 mm | - | 103 W/m² | - |
| 1778101616 | 24.44° C | 81% | 1011 hPa | 0 mm | - | 147 W/m² | - |
| 1778101010 | 24.44° C | 81% | 1010.8 hPa | 0 mm | - | 150 W/m² | - |
| 1778100403 | 24.44° C | 80% | 1010.8 hPa | 0 mm | - | 150 W/m² | - |
| 1778099494 | 24.44° C | 81% | 1011.2 hPa | 0 mm | - | 136 W/m² | - |
| 1778098888 | 25.56° C | 80% | 1011.1 hPa | 0 mm | - | 51 W/m² | - |
| 1778097978 | 25° C | 82% | 1011.4 hPa | 0 mm | - | 246 W/m² | - |
| 1778097068 | 25.56° C | 81% | 1011.2 hPa | 0 mm | - | 175 W/m² | - |
| 1778096160 | 25° C | 80% | 1011.5 hPa | 0 mm | - | 253 W/m² | - |
| 1778094946 | 25° C | 79% | 1012 hPa | 0 mm | - | 220 W/m² | - |
| 1778094642 | 25.56° C | 79% | 1012.1 hPa | 0 mm | - | 219 W/m² | - |
| 1778092520 | 24.44° C | 82% | 1012.8 hPa | 0 mm | - | 87 W/m² | - |
| 1778092217 | 24.44° C | 83% | 1012.7 hPa | 0 mm | - | 200 W/m² | - |
| 1778090703 | 22.78° C | 86% | 1013.2 hPa | 0 mm | - | 126 W/m² | - |
| 1778089491 | 23.33° C | 84% | 1013.3 hPa | 0 mm | - | 123 W/m² | - |
| 1778088581 | 23.89° C | 82% | 1013.2 hPa | 0 mm | - | 110 W/m² | - |
| 1778085236 | 23.33° C | 83% | 1012.9 hPa | 0 mm | - | 223 W/m² | - |
| 1778084931 | 22.78° C | 83% | 1012.8 hPa | 0 mm | - | 805 W/m² | - |
| 1778083716 | 22.22° C | 87% | 1013.5 hPa | 0 mm | - | 183 W/m² | - |
| 1778082807 | 22.22° C | 85% | 1013.2 hPa | 0 mm | - | 495 W/m² | - |
| 1778081377 | 21.11° C | 92% | 1013.6 hPa | 0 mm | - | 734 W/m² | - |
* Rain latest hour (hover to see other rain measurements)
** Current wind speed in m/s (hover to see current wind gust speed)